Time,TemperatureF,DewpointF,PressureIn,WindDirection,WindDirectionDegrees,WindSpeedMPH,WindSpeedGustMPH,Humidity,HourlyPrecipIn,Conditions,Clouds,dailyrainin,SoftwareType,DateUTC
2013-06-29 00:02:00,64.0,61.1,29.60,WSW,248,0.0,0.0,90,0.00,,,0.00,WUHU216HW,2013-06-29 04:02:00,
2013-06-29 00:07:00,64.2,61.3,29.60,WSW,248,0.0,0.0,90,0.00,,,0.00,WUHU216HW,2013-06-29 04:07:00,
2013-06-29 00:12:00,64.2,61.6,29.60,WSW,248,0.0,0.0,91,0.00,,,0.00,WUHU216HW,2013-06-29 04:12:00,
2013-06-29 00:17:00,64.4,61.8,29.60,WSW,248,0.0,0.0,91,0.00,,,0.00,WUHU216HW,2013-06-29 04:17:00,
2013-06-29 00:23:00,64.5,61.9,29.60,WSW,248,0.0,0.0,91,0.00,,,0.00,WUHU216HW,2013-06-29 04:23:00,
2013-06-29 00:29:00,64.5,61.9,29.60,WSW,248,0.0,0.0,91,0.00,,,0.00,WUHU216HW,2013-06-29 04:29:00,
2013-06-29 00:35:00,64.7,62.1,29.59,WSW,248,0.0,0.0,91,0.00,,,0.00,WUHU216HW,2013-06-29 04:35:00,
2013-06-29 00:40:00,64.7,62.1,29.59,WSW,248,0.0,0.0,91,0.00,,,0.00,WUHU216HW,2013-06-29 04:40:00,
2013-06-29 00:45:00,64.7,62.1,29.59,WSW,248,0.0,0.0,91,0.00,,,0.00,WUHU216HW,2013-06-29 04:45:00,
2013-06-29 00:51:00,64.9,62.2,29.59,WSW,248,0.0,0.0,91,0.00,,,0.00,WUHU216HW,2013-06-29 04:51:00,
2013-06-29 00:56:00,64.9,62.2,29.59,WSW,248,0.0,0.0,91,0.00,,,0.00,WUHU216HW,2013-06-29 04:56:00,
2013-06-29 01:02:00,65.1,62.4,29.59,WSW,248,0.0,0.0,91,0.00,,,0.00,WUHU216HW,2013-06-29 05:02:00,
2013-06-29 01:08:00,65.1,62.4,29.60,WSW,248,0.0,0.0,91,0.00,,,0.00,WUHU216HW,2013-06-29 05:08:00,
2013-06-29 01:14:00,65.1,62.7,29.60,WSW,248,0.0,0.0,92,0.00,,,0.00,WUHU216HW,2013-06-29 05:14:00,
2013-06-29 01:20:00,65.3,62.9,29.60,WSW,248,0.0,0.0,92,0.00,,,0.00,WUHU216HW,2013-06-29 05:20:00,
2013-06-29 01:25:00,65.3,62.9,29.60,WSW,248,0.0,0.0,92,0.00,,,0.00,WUHU216HW,2013-06-29 05:25:00,
2013-06-29 01:31:00,65.3,62.9,29.60,WSW,248,0.0,0.0,92,0.00,,,0.00,WUHU216HW,2013-06-29 05:31:00,
2013-06-29 01:36:00,65.4,63.0,29.60,WSW,248,0.0,0.0,92,0.00,,,0.00,WUHU216HW,2013-06-29 05:36:00,
2013-06-29 01:41:00,65.4,63.0,29.60,WSW,248,0.0,0.0,92,0.00,,,0.00,WUHU216HW,2013-06-29 05:41:00,
2013-06-29 01:47:00,65.4,63.0,29.60,WSW,248,0.0,0.0,92,0.00,,,0.00,WUHU216HW,2013-06-29 05:47:00,
2013-06-29 01:52:00,65.4,63.0,29.60,WSW,248,0.0,0.0,92,0.00,,,0.00,WUHU216HW,2013-06-29 05:52:00,
2013-06-29 01:58:00,65.4,63.0,29.60,WSW,248,0.0,0.0,92,0.00,,,0.00,WUHU216HW,2013-06-29 05:58:00,
2013-06-29 02:03:00,65.4,63.0,29.60,WSW,248,0.0,0.0,92,0.00,,,0.00,WUHU216HW,2013-06-29 06:03:00,
2013-06-29 02:08:00,65.3,62.9,29.60,South,180,0.0,0.0,92,0.00,,,0.00,WUHU216HW,2013-06-29 06:08:00,
2013-06-29 02:13:00,65.3,62.9,29.60,South,180,0.0,0.0,92,0.00,,,0.00,WUHU216HW,2013-06-29 06:13:00,
2013-06-29 02:18:00,65.1,62.7,29.60,South,180,0.0,0.0,92,0.00,,,0.00,WUHU216HW,2013-06-29 06:18:00,
2013-06-29 02:24:00,65.1,63.0,29.59,South,180,0.0,0.0,93,0.00,,,0.00,WUHU216HW,2013-06-29 06:24:00,
2013-06-29 02:29:00,65.1,63.0,29.59,South,180,0.0,0.0,93,0.00,,,0.00,WUHU216HW,2013-06-29 06:29:00,
2013-06-29 02:34:00,65.1,63.0,29.59,South,180,0.0,0.0,93,0.00,,,0.00,WUHU216HW,2013-06-29 06:34:00,
2013-06-29 02:40:00,65.1,63.0,29.59,South,180,0.0,0.0,93,0.00,,,0.00,WUHU216HW,2013-06-29 06:40:00,
2013-06-29 02:45:00,65.1,63.0,29.59,SW,225,0.0,0.0,93,0.00,,,0.00,WUHU216HW,2013-06-29 06:45:00,
2013-06-29 02:51:00,65.1,63.0,29.59,SW,225,0.0,0.0,93,0.00,,,0.00,WUHU216HW,2013-06-29 06:51:00,
2013-06-29 02:56:00,65.1,63.0,29.59,SSW,203,0.0,0.0,93,0.00,,,0.00,WUHU216HW,2013-06-29 06:56:00,
2013-06-29 03:02:00,65.1,63.0,29.59,SSW,203,0.0,0.0,93,0.00,,,0.00,WUHU216HW,2013-06-29 07:02:00,
2013-06-29 03:08:00,64.9,62.8,29.59,SSW,203,0.0,0.0,93,0.00,,,0.00,WUHU216HW,2013-06-29 07:08:00,
2013-06-29 03:14:00,64.7,62.7,29.59,SSW,203,0.0,0.0,93,0.00,,,0.00,WUHU216HW,2013-06-29 07:14:00,
2013-06-29 03:19:00,64.7,62.4,29.59,SSW,203,0.0,0.0,92,0.00,,,0.00,WUHU216HW,2013-06-29 07:19:00,
2013-06-29 03:25:00,64.5,62.2,29.59,SW,225,0.0,0.0,92,0.00,,,0.00,WUHU216HW,2013-06-29 07:25:00,
2013-06-29 03:30:00,64.5,62.2,29.59,SW,225,0.0,0.0,92,0.00,,,0.00,WUHU216HW,2013-06-29 07:30:00,
2013-06-29 03:36:00,64.2,62.2,29.59,SW,225,0.0,0.0,93,0.00,,,0.00,WUHU216HW,2013-06-29 07:36:00,
2013-06-29 03:42:00,64.2,62.2,29.59,SW,225,0.0,0.0,93,0.00,,,0.00,WUHU216HW,2013-06-29 07:42:00,
2013-06-29 03:47:00,64.2,62.2,29.59,SW,225,0.0,0.0,93,0.00,,,0.00,WUHU216HW,2013-06-29 07:47:00,
2013-06-29 03:53:00,64.2,62.2,29.59,SW,225,0.0,0.0,93,0.00,,,0.00,WUHU216HW,2013-06-29 07:53:00,
2013-06-29 03:59:00,64.0,62.0,29.59,SW,225,0.0,0.0,93,0.00,,,0.00,WUHU216HW,2013-06-29 07:59:00,
2013-06-29 04:04:00,64.0,62.0,29.59,SW,225,0.0,0.0,93,0.00,,,0.00,WUHU216HW,2013-06-29 08:04:00,
2013-06-29 04:09:00,63.8,61.8,29.59,SW,225,0.0,0.0,93,0.00,,,0.00,WUHU216HW,2013-06-29 08:09:00,
2013-06-29 04:15:00,63.6,61.6,29.60,SW,225,0.0,0.0,93,0.00,,,0.00,WUHU216HW,2013-06-29 08:15:00,
2013-06-29 04:21:00,63.6,61.6,29.60,SW,225,0.0,0.0,93,0.00,,,0.00,WUHU216HW,2013-06-29 08:21:00,
2013-06-29 04:27:00,63.5,61.4,29.60,SW,225,0.0,0.0,93,0.00,,,0.00,WUHU216HW,2013-06-29 08:27:00,
2013-06-29 04:32:00,63.3,61.3,29.60,SW,225,0.0,0.0,93,0.00,,,0.00,WUHU216HW,2013-06-29 08:32:00,
2013-06-29 04:38:00,63.1,61.1,29.60,SW,225,0.0,0.0,93,0.00,,,0.00,WUHU216HW,2013-06-29 08:38:00,
2013-06-29 04:44:00,63.1,61.1,29.59,SW,225,0.0,0.0,93,0.00,,,0.00,WUHU216HW,2013-06-29 08:44:00,
2013-06-29 04:49:00,62.9,60.9,29.60,SW,225,0.0,0.0,93,0.00,,,0.00,WUHU216HW,2013-06-29 08:49:00,
2013-06-29 04:55:00,62.7,60.7,29.60,SW,225,0.0,0.0,93,0.00,,,0.00,WUHU216HW,2013-06-29 08:55:00,
2013-06-29 05:01:00,62.4,60.4,29.60,SW,225,0.0,0.0,93,0.00,,,0.00,WUHU216HW,2013-06-29 09:01:00,
2013-06-29 05:06:00,62.4,60.4,29.60,SW,225,0.0,0.0,93,0.00,,,0.00,WUHU216HW,2013-06-29 09:06:00,
2013-06-29 05:12:00,62.4,60.4,29.60,SW,225,0.0,0.0,93,0.00,,,0.00,WUHU216HW,2013-06-29 09:12:00,
2013-06-29 05:17:00,62.2,59.9,29.60,SW,225,0.0,0.0,92,0.00,,,0.00,WUHU216HW,2013-06-29 09:17:00,
2013-06-29 05:28:00,62.0,60.0,29.60,SW,225,0.0,0.0,93,0.00,,,0.00,WUHU216HW,2013-06-29 09:28:00,
2013-06-29 05:33:00,61.8,59.8,29.60,SW,225,0.0,0.0,93,0.00,,,0.00,WUHU216HW,2013-06-29 09:33:00,
2013-06-29 05:39:00,61.8,59.8,29.61,SW,225,0.0,0.0,93,0.00,,,0.00,WUHU216HW,2013-06-29 09:39:00,
2013-06-29 05:45:00,61.8,59.8,29.61,SW,225,0.0,0.0,93,0.00,,,0.00,WUHU216HW,2013-06-29 09:45:00,
2013-06-29 05:51:00,61.8,59.8,29.60,SW,225,0.0,0.0,93,0.00,,,0.00,WUHU216HW,2013-06-29 09:51:00,
2013-06-29 05:57:00,61.8,59.8,29.61,SW,225,0.0,0.0,93,0.00,,,0.00,WUHU216HW,2013-06-29 09:57:00,
2013-06-29 06:02:00,61.8,59.8,29.61,SW,225,0.0,0.0,93,0.00,,,0.00,WUHU216HW,2013-06-29 10:02:00,
2013-06-29 06:08:00,61.8,59.8,29.61,SW,225,0.0,0.0,93,0.00,,,0.00,WUHU216HW,2013-06-29 10:08:00,
2013-06-29 06:14:00,62.2,60.2,29.61,SW,225,0.0,0.0,93,0.00,,,0.00,WUHU216HW,2013-06-29 10:14:00,
2013-06-29 06:19:00,62.4,60.4,29.61,SW,225,0.0,0.0,93,0.00,,,0.00,WUHU216HW,2013-06-29 10:19:00,
2013-06-29 06:24:00,62.4,60.4,29.61,SW,225,0.0,0.0,93,0.00,,,0.00,WUHU216HW,2013-06-29 10:24:00,
2013-06-29 06:29:00,62.4,60.6,29.62,SW,225,0.0,0.0,94,0.00,,,0.00,WUHU216HW,2013-06-29 10:29:00,
2013-06-29 06:35:00,62.6,60.8,29.62,SW,225,0.0,0.0,94,0.00,,,0.00,WUHU216HW,2013-06-29 10:35:00,
2013-06-29 06:40:00,62.7,61.0,29.62,SW,225,0.0,0.0,94,0.00,,,0.00,WUHU216HW,2013-06-29 10:40:00,
2013-06-29 06:45:00,62.9,61.2,29.62,SW,225,0.0,0.0,94,0.00,,,0.00,WUHU216HW,2013-06-29 10:45:00,
2013-06-29 06:50:00,63.1,61.4,29.62,SW,225,0.0,0.0,94,0.00,,,0.00,WUHU216HW,2013-06-29 10:50:00,
2013-06-29 06:55:00,63.1,61.4,29.63,SW,225,0.0,0.0,94,0.00,,,0.00,WUHU216HW,2013-06-29 10:55:00,
2013-06-29 07:00:00,63.3,61.5,29.63,NE,45,0.0,0.0,94,0.00,,,0.00,WUHU216HW,2013-06-29 11:00:00,
2013-06-29 07:06:00,63.3,61.5,29.63,NE,45,0.0,0.0,94,0.00,,,0.00,WUHU216HW,2013-06-29 11:06:00,
2013-06-29 07:11:00,63.6,61.9,29.63,NE,45,0.0,0.0,94,0.00,,,0.00,WUHU216HW,2013-06-29 11:11:00,
2013-06-29 07:16:00,63.8,62.1,29.63,NE,45,0.0,0.0,94,0.00,,,0.00,WUHU216HW,2013-06-29 11:16:00,
2013-06-29 07:21:00,64.0,62.3,29.64,NE,45,0.0,0.0,94,0.00,,,0.00,WUHU216HW,2013-06-29 11:21:00,
2013-06-29 07:26:00,64.0,62.3,29.64,NE,45,0.0,0.0,94,0.00,,,0.00,WUHU216HW,2013-06-29 11:26:00,
2013-06-29 07:32:00,64.2,62.4,29.63,NNE,23,0.0,0.0,94,0.00,,,0.00,WUHU216HW,2013-06-29 11:32:00,
2013-06-29 07:37:00,64.2,62.4,29.64,NNE,23,0.0,0.0,94,0.00,,,0.00,WUHU216HW,2013-06-29 11:37:00,
2013-06-29 07:42:00,64.2,62.4,29.64,NW,315,0.0,0.0,94,0.00,,,0.00,WUHU216HW,2013-06-29 11:42:00,
2013-06-29 07:48:00,64.5,62.8,29.64,NW,315,0.0,0.0,94,0.00,,,0.00,WUHU216HW,2013-06-29 11:48:00,
2013-06-29 07:54:00,64.7,62.9,29.64,NW,315,0.0,0.0,94,0.00,,,0.00,WUHU216HW,2013-06-29 11:54:00,
2013-06-29 07:59:00,64.9,63.1,29.64,NW,315,0.0,0.0,94,0.00,,,0.00,WUHU216HW,2013-06-29 11:59:00,
2013-06-29 08:05:00,65.1,63.0,29.64,WNW,293,0.0,0.0,93,0.00,,,0.00,WUHU216HW,2013-06-29 12:05:00,
2013-06-29 08:10:00,65.4,63.3,29.64,WNW,293,0.0,0.0,93,0.00,,,0.00,WUHU216HW,2013-06-29 12:10:00,
2013-06-29 08:15:00,65.4,63.3,29.64,WNW,293,0.0,0.0,93,0.00,,,0.00,WUHU216HW,2013-06-29 12:15:00,
2013-06-29 08:21:00,65.8,63.7,29.64,WNW,293,0.0,0.0,93,0.00,,,0.00,WUHU216HW,2013-06-29 12:21:00,
2013-06-29 08:26:00,66.0,63.8,29.64,SSW,203,0.0,0.0,93,0.00,,,0.00,WUHU216HW,2013-06-29 12:26:00,
2013-06-29 08:32:00,66.3,64.2,29.64,WSW,248,0.0,0.0,93,0.00,,,0.00,WUHU216HW,2013-06-29 12:32:00,
2013-06-29 08:38:00,66.7,64.2,29.64,West,270,0.0,0.0,92,0.00,,,0.00,WUHU216HW,2013-06-29 12:38:00,
2013-06-29 08:44:00,66.9,64.1,29.65,West,270,0.0,0.0,91,0.00,,,0.00,WUHU216HW,2013-06-29 12:44:00,
2013-06-29 08:49:00,66.9,64.1,29.65,West,270,0.0,0.0,91,0.00,,,0.00,WUHU216HW,2013-06-29 12:49:00,
2013-06-29 08:55:00,67.1,64.3,29.65,WSW,248,0.0,0.0,91,0.00,,,0.00,WUHU216HW,2013-06-29 12:55:00,
2013-06-29 09:00:00,67.2,64.5,29.65,WSW,248,0.0,0.0,91,0.00,,,0.00,WUHU216HW,2013-06-29 13:00:00,
2013-06-29 09:05:00,67.8,65.0,29.65,West,270,0.0,0.0,91,0.00,,,0.00,WUHU216HW,2013-06-29 13:05:00,
2013-06-29 09:10:00,68.1,65.4,29.65,WSW,248,0.0,0.0,91,0.00,,,0.00,WUHU216HW,2013-06-29 13:10:00,
2013-06-29 09:16:00,68.7,65.6,29.64,NW,315,0.0,0.0,90,0.00,,,0.00,WUHU216HW,2013-06-29 13:16:00,
2013-06-29 09:22:00,69.0,65.6,29.65,NW,315,0.0,0.0,89,0.00,,,0.00,WUHU216HW,2013-06-29 13:22:00,
2013-06-29 09:28:00,69.4,66.0,29.65,NW,315,0.0,0.0,89,0.00,,,0.00,WUHU216HW,2013-06-29 13:28:00,
2013-06-29 09:33:00,69.9,66.2,29.65,SW,225,0.0,0.0,88,0.00,,,0.00,WUHU216HW,2013-06-29 13:33:00,
2013-06-29 09:39:00,69.9,66.2,29.65,SW,225,0.0,0.0,88,0.00,,,0.00,WUHU216HW,2013-06-29 13:39:00,
2013-06-29 09:44:00,70.3,66.2,29.65,SW,225,0.0,0.0,87,0.00,,,0.00,WUHU216HW,2013-06-29 13:44:00,
2013-06-29 09:49:00,70.5,66.4,29.65,SW,225,0.0,0.0,87,0.00,,,0.00,WUHU216HW,2013-06-29 13:49:00,
2013-06-29 09:55:00,71.2,67.1,29.65,North,0,0.0,0.0,87,0.00,,,0.00,WUHU216HW,2013-06-29 13:55:00,
2013-06-29 10:00:00,71.4,67.3,29.65,SW,225,0.0,0.0,87,0.00,,,0.00,WUHU216HW,2013-06-29 14:00:00,
2013-06-29 10:06:00,71.9,67.5,29.65,SW,225,0.0,0.0,86,0.00,,,0.00,WUHU216HW,2013-06-29 14:06:00,
2013-06-29 10:12:00,72.3,67.8,29.65,South,180,0.0,0.0,86,0.00,,,0.00,WUHU216HW,2013-06-29 14:12:00,
2013-06-29 10:18:00,72.6,67.5,29.65,SSW,203,0.0,0.0,84,0.00,,,0.00,WUHU216HW,2013-06-29 14:18:00,
2013-06-29 10:24:00,73.0,67.9,29.64,NW,315,0.0,0.0,84,0.00,,,0.00,WUHU216HW,2013-06-29 14:24:00,
2013-06-29 10:30:00,73.5,68.4,29.64,WNW,293,0.0,0.0,84,0.00,,,0.00,WUHU216HW,2013-06-29 14:30:00,
2013-06-29 10:35:00,73.7,68.3,29.64,NW,315,0.0,0.0,83,0.00,,,0.00,WUHU216HW,2013-06-29 14:35:00,
2013-06-29 10:40:00,74.3,68.8,29.64,NW,315,0.0,0.0,83,0.00,,,0.00,WUHU216HW,2013-06-29 14:40:00,
2013-06-29 10:45:00,74.8,69.0,29.64,NW,315,0.0,0.0,82,0.00,,,0.00,WUHU216HW,2013-06-29 14:45:00,
2013-06-29 10:51:00,75.3,69.5,29.64,NW,315,0.0,0.0,82,0.00,,,0.00,WUHU216HW,2013-06-29 14:51:00,
2013-06-29 10:56:00,75.7,69.8,29.64,NW,315,0.0,0.0,82,0.00,,,0.00,WUHU216HW,2013-06-29 14:56:00,
2013-06-29 11:01:00,76.2,69.2,29.64,SW,225,0.0,0.0,79,0.00,,,0.00,WUHU216HW,2013-06-29 15:01:00,
2013-06-29 11:06:00,76.4,69.4,29.64,SW,225,0.0,0.0,79,0.00,,,0.00,WUHU216HW,2013-06-29 15:06:00,
2013-06-29 11:12:00,76.8,70.1,29.64,SW,225,0.0,0.0,80,0.00,,,0.00,WUHU216HW,2013-06-29 15:12:00,
2013-06-29 11:17:00,77.3,70.7,29.64,SW,225,0.0,0.0,80,0.00,,,0.00,WUHU216HW,2013-06-29 15:17:00,
2013-06-29 11:23:00,78.0,70.6,29.64,SW,225,0.0,0.0,78,0.00,,,0.00,WUHU216HW,2013-06-29 15:23:00,
2013-06-29 11:28:00,78.6,70.7,29.64,SW,225,0.0,0.0,77,0.00,,,0.00,WUHU216HW,2013-06-29 15:28:00,
2013-06-29 11:33:00,79.5,70.8,29.64,SW,225,0.0,0.0,75,0.00,,,0.00,WUHU216HW,2013-06-29 15:33:00,
2013-06-29 11:38:00,79.8,71.2,29.64,SW,225,0.0,0.0,75,0.00,,,0.00,WUHU216HW,2013-06-29 15:38:00,
2013-06-29 11:44:00,80.7,71.7,29.64,WNW,293,0.0,0.0,74,0.00,,,0.00,WUHU216HW,2013-06-29 15:44:00,
2013-06-29 11:49:00,81.3,71.4,29.64,West,270,0.0,0.0,72,0.00,,,0.00,WUHU216HW,2013-06-29 15:49:00,
2013-06-29 11:55:00,81.3,71.0,29.64,WSW,248,0.0,0.0,71,0.00,,,0.00,WUHU216HW,2013-06-29 15:55:00,
2013-06-29 12:01:00,80.7,70.5,29.64,West,270,0.0,0.0,71,0.00,,,0.00,WUHU216HW,2013-06-29 16:01:00,
2013-06-29 12:06:00,80.2,70.0,29.64,West,270,0.0,0.0,71,0.00,,,0.00,WUHU216HW,2013-06-29 16:06:00,
2013-06-29 12:12:00,78.9,68.7,29.64,West,270,0.0,0.0,71,0.00,,,0.00,WUHU216HW,2013-06-29 16:12:00,
2013-06-29 12:17:00,78.6,69.1,29.65,West,270,0.0,0.0,73,0.00,,,0.00,WUHU216HW,2013-06-29 16:17:00,
2013-06-29 12:22:00,78.6,69.1,29.65,West,270,0.0,0.0,73,0.00,,,0.00,WUHU216HW,2013-06-29 16:22:00,
2013-06-29 12:28:00,78.4,68.6,29.65,SW,225,0.0,0.0,72,0.00,,,0.00,WUHU216HW,2013-06-29 16:28:00,
2013-06-29 12:34:00,77.9,67.7,29.65,WNW,293,0.0,0.0,71,0.00,,,0.00,WUHU216HW,2013-06-29 16:34:00,
2013-06-29 12:40:00,77.5,67.4,29.65,NW,315,0.0,0.0,71,0.00,,,0.00,WUHU216HW,2013-06-29 16:40:00,
2013-06-29 12:46:00,77.1,67.4,29.65,SSW,203,0.0,0.0,72,0.00,,,0.00,WUHU216HW,2013-06-29 16:46:00,
2013-06-29 12:51:00,77.1,67.4,29.65,NW,315,0.0,0.0,72,0.00,,,0.00,WUHU216HW,2013-06-29 16:51:00,
2013-06-29 12:57:00,77.0,67.3,29.65,WSW,248,0.0,0.0,72,0.00,,,0.00,WUHU216HW,2013-06-29 16:57:00,
2013-06-29 13:02:00,77.3,68.0,29.65,WSW,248,0.0,0.0,73,0.00,,,0.00,WUHU216HW,2013-06-29 17:02:00,
2013-06-29 13:08:00,77.7,67.9,29.65,SW,225,0.0,0.0,72,0.00,,,0.00,WUHU216HW,2013-06-29 17:08:00,
2013-06-29 13:13:00,77.9,68.1,29.65,SW,225,0.0,3.5,72,0.00,,,0.00,WUHU216HW,2013-06-29 17:13:00,
2013-06-29 13:19:00,79.3,69.9,29.65,SW,225,0.0,3.5,73,0.00,,,0.00,WUHU216HW,2013-06-29 17:19:00,
2013-06-29 13:24:00,80.2,70.0,29.65,WSW,248,0.0,0.0,71,0.00,,,0.00,WUHU216HW,2013-06-29 17:24:00,
2013-06-29 13:29:00,80.2,70.0,29.65,SSW,203,0.0,0.0,71,0.00,,,0.00,WUHU216HW,2013-06-29 17:29:00,
2013-06-29 13:34:00,80.4,70.5,29.64,SSW,203,0.0,0.0,72,0.00,,,0.00,WUHU216HW,2013-06-29 17:34:00,
2013-06-29 13:39:00,81.1,70.4,29.64,SSW,203,0.0,0.0,70,0.00,,,0.00,WUHU216HW,2013-06-29 17:39:00,
2013-06-29 13:45:00,81.1,69.5,29.64,SW,225,0.0,0.0,68,0.00,,,0.00,WUHU216HW,2013-06-29 17:45:00,
2013-06-29 13:51:00,81.3,69.7,29.64,SW,225,0.0,0.0,68,0.00,,,0.00,WUHU216HW,2013-06-29 17:51:00,
2013-06-29 13:56:00,81.5,69.8,29.64,SW,225,0.0,0.0,68,0.00,,,0.00,WUHU216HW,2013-06-29 17:56:00,
2013-06-29 14:02:00,82.2,69.6,29.64,WSW,248,0.0,0.0,66,0.00,,,0.00,WUHU216HW,2013-06-29 18:02:00,
2013-06-29 14:08:00,83.4,70.4,29.64,SW,225,0.0,0.0,65,0.00,,,0.00,WUHU216HW,2013-06-29 18:08:00,
2013-06-29 14:14:00,84.2,70.7,29.64,West,270,0.0,0.0,64,0.00,,,0.00,WUHU216HW,2013-06-29 18:14:00,
2013-06-29 14:19:00,84.3,70.4,29.64,West,270,0.0,0.0,63,0.00,,,0.00,WUHU216HW,2013-06-29 18:19:00,
2013-06-29 14:25:00,84.9,71.3,29.64,WSW,248,0.0,0.0,64,0.00,,,0.00,WUHU216HW,2013-06-29 18:25:00,
2013-06-29 14:35:00,85.2,70.7,29.64,WSW,248,0.0,0.0,62,0.00,,,0.00,WUHU216HW,2013-06-29 18:35:00,
2013-06-29 14:41:00,85.6,71.5,29.64,WSW,248,0.0,0.0,63,0.00,,,0.00,WUHU216HW,2013-06-29 18:41:00,
2013-06-29 14:47:00,85.8,70.8,29.64,SW,225,0.0,0.0,61,0.00,,,0.00,WUHU216HW,2013-06-29 18:47:00,
2013-06-29 14:52:00,85.1,70.6,29.64,NE,45,1.7,1.7,62,0.00,,,0.00,WUHU216HW,2013-06-29 18:52:00,
2013-06-29 14:58:00,84.9,70.9,29.63,WSW,248,0.0,1.7,63,0.00,,,0.00,WUHU216HW,2013-06-29 18:58:00,
2013-06-29 15:04:00,85.6,72.5,29.63,WSW,248,0.0,1.7,65,0.00,,,0.00,WUHU216HW,2013-06-29 19:04:00,
2013-06-29 15:09:00,85.8,71.7,29.63,WSW,248,0.0,0.0,63,0.00,,,0.00,WUHU216HW,2013-06-29 19:09:00,
2013-06-29 15:14:00,85.8,71.2,29.63,WSW,248,0.0,0.0,62,0.00,,,0.00,WUHU216HW,2013-06-29 19:14:00,
2013-06-29 15:20:00,86.0,71.4,29.63,WSW,248,0.0,0.0,62,0.00,,,0.00,WUHU216HW,2013-06-29 19:20:00,
2013-06-29 15:26:00,86.0,70.9,29.64,WSW,248,0.0,0.0,61,0.00,,,0.00,WUHU216HW,2013-06-29 19:26:00,
2013-06-29 15:32:00,86.3,72.2,29.63,WSW,248,0.0,0.0,63,0.00,,,0.00,WUHU216HW,2013-06-29 19:32:00,
2013-06-29 15:38:00,86.5,71.0,29.63,WSW,248,0.0,0.0,60,0.00,,,0.00,WUHU216HW,2013-06-29 19:38:00,
2013-06-29 15:44:00,86.7,72.1,29.64,WSW,248,0.0,0.0,62,0.00,,,0.00,WUHU216HW,2013-06-29 19:44:00,
2013-06-29 15:49:00,87.0,72.0,29.64,SSE,158,0.0,0.0,61,0.00,,,0.00,WUHU216HW,2013-06-29 19:49:00,
2013-06-29 15:55:00,87.0,71.6,29.64,West,270,0.0,0.0,60,0.00,,,0.00,WUHU216HW,2013-06-29 19:55:00,
2013-06-29 16:00:00,86.9,71.4,29.64,NW,315,0.0,0.0,60,0.00,,,0.00,WUHU216HW,2013-06-29 20:00:00,
2013-06-29 16:05:00,87.0,71.6,29.64,West,270,0.0,0.0,60,0.00,,,0.00,WUHU216HW,2013-06-29 20:05:00,
2013-06-29 16:11:00,87.0,71.0,29.64,West,270,0.0,0.0,59,0.00,,,0.00,WUHU216HW,2013-06-29 20:11:00,
2013-06-29 16:17:00,86.5,71.0,29.64,WSW,248,0.0,0.0,60,0.00,,,0.00,WUHU216HW,2013-06-29 20:17:00,
2013-06-29 16:23:00,85.8,70.3,29.64,WSW,248,0.0,0.0,60,0.00,,,0.00,WUHU216HW,2013-06-29 20:23:00,
2013-06-29 16:28:00,85.6,70.6,29.64,WSW,248,0.0,0.0,61,0.00,,,0.00,WUHU216HW,2013-06-29 20:28:00,
2013-06-29 16:34:00,85.8,70.8,29.64,WSW,248,0.0,0.0,61,0.00,,,0.00,WUHU216HW,2013-06-29 20:34:00,
2013-06-29 16:39:00,86.9,71.8,29.64,WSW,248,0.0,0.0,61,0.00,,,0.00,WUHU216HW,2013-06-29 20:39:00,
2013-06-29 16:44:00,86.9,70.8,29.64,SW,225,0.0,0.0,59,0.00,,,0.00,WUHU216HW,2013-06-29 20:44:00,
2013-06-29 16:50:00,86.3,70.8,29.64,SW,225,0.0,0.0,60,0.00,,,0.00,WUHU216HW,2013-06-29 20:50:00,
2013-06-29 16:55:00,85.6,70.1,29.64,SW,225,0.0,0.0,60,0.00,,,0.00,WUHU216HW,2013-06-29 20:55:00,
2013-06-29 17:01:00,84.7,69.3,29.64,West,270,0.0,0.0,60,0.00,,,0.00,WUHU216HW,2013-06-29 21:01:00,
2013-06-29 17:07:00,82.9,66.5,29.64,SSW,203,1.7,1.7,58,0.00,,,0.00,WUHU216HW,2013-06-29 21:07:00,
2013-06-29 17:12:00,80.9,65.2,29.64,ENE,68,0.0,2.0,59,0.00,,,0.00,WUHU216HW,2013-06-29 21:12:00,
2013-06-29 17:18:00,78.8,65.5,29.65,ESE,113,0.0,2.0,64,0.00,,,0.00,WUHU216HW,2013-06-29 21:18:00,
2013-06-29 17:24:00,77.5,65.2,29.65,ESE,113,0.0,0.0,66,0.00,,,0.00,WUHU216HW,2013-06-29 21:24:00,
2013-06-29 17:29:00,76.8,65.9,29.64,ESE,113,0.0,0.0,69,0.02,,,0.02,WUHU216HW,2013-06-29 21:29:00,
2013-06-29 17:34:00,76.4,66.0,29.64,ESE,113,0.0,0.0,70,0.02,,,0.02,WUHU216HW,2013-06-29 21:34:00,
2013-06-29 17:40:00,76.2,66.5,29.64,ESE,113,0.0,0.0,72,0.02,,,0.02,WUHU216HW,2013-06-29 21:40:00,
2013-06-29 17:45:00,76.2,66.9,29.64,ESE,113,0.0,0.0,73,0.02,,,0.02,WUHU216HW,2013-06-29 21:45:00,
2013-06-29 17:51:00,76.4,67.1,29.64,ESE,113,0.0,0.0,73,0.02,,,0.02,WUHU216HW,2013-06-29 21:51:00,
2013-06-29 17:56:00,76.2,67.3,29.65,ENE,68,0.0,0.0,74,0.02,,,0.02,WUHU216HW,2013-06-29 21:56:00,
2013-06-29 18:02:00,76.4,67.9,29.64,ENE,68,0.0,0.0,75,0.02,,,0.02,WUHU216HW,2013-06-29 22:02:00,
2013-06-29 18:07:00,76.6,68.1,29.64,ENE,68,0.0,0.0,75,0.02,,,0.02,WUHU216HW,2013-06-29 22:07:00,
2013-06-29 18:12:00,76.2,67.3,29.64,ENE,68,0.0,0.0,74,0.02,,,0.02,WUHU216HW,2013-06-29 22:12:00,
2013-06-29 18:17:00,75.9,67.0,29.65,ENE,68,0.0,0.0,74,0.02,,,0.02,WUHU216HW,2013-06-29 22:17:00,
2013-06-29 18:22:00,75.7,67.2,29.66,ENE,68,0.0,0.0,75,0.02,,,0.02,WUHU216HW,2013-06-29 22:22:00,
2013-06-29 18:28:00,75.2,67.1,29.66,NE,45,0.0,0.0,76,0.02,,,0.04,WUHU216HW,2013-06-29 22:28:00,
2013-06-29 18:34:00,74.4,66.8,29.66,NE,45,0.0,0.0,77,0.04,,,0.06,WUHU216HW,2013-06-29 22:34:00,
2013-06-29 18:40:00,74.1,66.8,29.66,NE,45,0.0,0.0,78,0.08,,,0.10,WUHU216HW,2013-06-29 22:40:00,
2013-06-29 18:46:00,74.1,67.6,29.66,NE,45,0.0,0.0,80,0.10,,,0.12,WUHU216HW,2013-06-29 22:46:00,
2013-06-29 18:51:00,74.1,67.6,29.66,NE,45,0.0,0.0,80,0.10,,,0.12,WUHU216HW,2013-06-29 22:51:00,
2013-06-29 18:56:00,74.1,67.6,29.66,NE,45,0.0,0.0,80,0.10,,,0.12,WUHU216HW,2013-06-29 22:56:00,
2013-06-29 19:02:00,73.9,67.4,29.66,NE,45,0.0,0.0,80,0.10,,,0.12,WUHU216HW,2013-06-29 23:02:00,
2013-06-29 19:08:00,73.7,67.2,29.67,NE,45,0.0,0.0,80,0.10,,,0.12,WUHU216HW,2013-06-29 23:08:00,
2013-06-29 19:14:00,73.9,67.8,29.67,NE,45,0.0,0.0,81,0.10,,,0.12,WUHU216HW,2013-06-29 23:14:00,
2013-06-29 19:19:00,73.7,67.6,29.67,NE,45,0.0,0.0,81,0.10,,,0.12,WUHU216HW,2013-06-29 23:19:00,
2013-06-29 19:24:00,73.4,67.2,29.67,NE,45,0.0,0.0,81,0.10,,,0.12,WUHU216HW,2013-06-29 23:24:00,
2013-06-29 19:29:00,73.2,67.0,29.67,NE,45,0.0,0.0,81,0.08,,,0.12,WUHU216HW,2013-06-29 23:29:00,
2013-06-29 19:34:00,73.2,67.4,29.67,NE,45,0.0,0.0,82,0.06,,,0.12,WUHU216HW,2013-06-29 23:34:00,
2013-06-29 19:40:00,72.6,66.8,29.67,NE,45,0.0,0.0,82,0.02,,,0.12,WUHU216HW,2013-06-29 23:40:00,
2013-06-29 19:45:00,72.6,66.8,29.68,NE,45,0.0,0.0,82,0.00,,,0.12,WUHU216HW,2013-06-29 23:45:00,
2013-06-29 19:50:00,72.3,66.5,29.67,NE,45,0.0,0.0,82,0.00,,,0.12,WUHU216HW,2013-06-29 23:50:00,
2013-06-29 19:56:00,72.1,66.6,29.67,NE,45,0.0,0.0,83,0.00,,,0.12,WUHU216HW,2013-06-29 23:56:00,
2013-06-29 20:02:00,71.9,66.8,29.68,NE,45,0.0,0.0,84,0.00,,,0.12,WUHU216HW,2013-06-30 00:02:00,
2013-06-29 20:07:00,71.7,66.3,29.68,NE,45,0.0,0.0,83,0.00,,,0.12,WUHU216HW,2013-06-30 00:07:00,
2013-06-29 20:13:00,71.6,66.1,29.69,NE,45,0.0,0.0,83,0.00,,,0.12,WUHU216HW,2013-06-30 00:13:00,
2013-06-29 20:18:00,71.4,66.3,29.69,NE,45,0.0,0.0,84,0.00,,,0.12,WUHU216HW,2013-06-30 00:18:00,
2013-06-29 20:24:00,71.2,66.1,29.69,NE,45,0.0,0.0,84,0.00,,,0.12,WUHU216HW,2013-06-30 00:24:00,
2013-06-29 20:30:00,71.0,65.9,29.69,NE,45,0.0,0.0,84,0.00,,,0.12,WUHU216HW,2013-06-30 00:30:00,
2013-06-29 20:36:00,70.7,65.5,29.69,NE,45,0.0,0.0,84,0.00,,,0.12,WUHU216HW,2013-06-30 00:36:00,
2013-06-29 20:42:00,70.5,65.4,29.69,NE,45,0.0,0.0,84,0.00,,,0.12,WUHU216HW,2013-06-30 00:42:00,
2013-06-29 20:47:00,70.3,65.5,29.69,NE,45,0.0,0.0,85,0.00,,,0.12,WUHU216HW,2013-06-30 00:47:00,
2013-06-29 20:52:00,69.9,64.8,29.70,NE,45,0.0,0.0,84,0.00,,,0.12,WUHU216HW,2013-06-30 00:52:00,
2013-06-29 20:58:00,69.8,65.0,29.70,NE,45,0.0,0.0,85,0.00,,,0.12,WUHU216HW,2013-06-30 00:58:00,
2013-06-29 21:04:00,69.6,64.8,29.70,NE,45,0.0,0.0,85,0.00,,,0.12,WUHU216HW,2013-06-30 01:04:00,
2013-06-29 21:10:00,69.6,64.8,29.69,NE,45,0.0,0.0,85,0.00,,,0.12,WUHU216HW,2013-06-30 01:10:00,
2013-06-29 21:15:00,69.4,64.6,29.70,NE,45,0.0,0.0,85,0.00,,,0.12,WUHU216HW,2013-06-30 01:15:00,
2013-06-29 21:21:00,69.0,64.6,29.70,NE,45,0.0,0.0,86,0.00,,,0.12,WUHU216HW,2013-06-30 01:21:00,
2013-06-29 21:26:00,68.9,64.5,29.71,NE,45,0.0,0.0,86,0.00,,,0.12,WUHU216HW,2013-06-30 01:26:00,
2013-06-29 21:31:00,68.7,64.3,29.71,NE,45,0.0,0.0,86,0.00,,,0.12,WUHU216HW,2013-06-30 01:31:00,
2013-06-29 21:36:00,68.7,64.0,29.71,NE,45,0.0,0.0,85,0.00,,,0.12,WUHU216HW,2013-06-30 01:36:00,
2013-06-29 21:42:00,68.5,64.1,29.71,NE,45,0.0,0.0,86,0.00,,,0.12,WUHU216HW,2013-06-30 01:42:00,
2013-06-29 21:47:00,68.5,64.1,29.71,NE,45,0.0,0.0,86,0.00,,,0.12,WUHU216HW,2013-06-30 01:47:00,
2013-06-29 21:52:00,68.1,63.8,29.72,NE,45,0.0,0.0,86,0.00,,,0.12,WUHU216HW,2013-06-30 01:52:00,
2013-06-29 21:58:00,68.1,63.8,29.72,NE,45,0.0,0.0,86,0.00,,,0.12,WUHU216HW,2013-06-30 01:58:00,
2013-06-29 22:04:00,67.8,63.4,29.72,NE,45,0.0,0.0,86,0.00,,,0.12,WUHU216HW,2013-06-30 02:04:00,
2013-06-29 22:15:00,67.6,63.6,29.72,NE,45,0.0,0.0,87,0.00,,,0.12,WUHU216HW,2013-06-30 02:15:00,
2013-06-29 22:21:00,67.6,63.6,29.72,NE,45,0.0,0.0,87,0.00,,,0.12,WUHU216HW,2013-06-30 02:21:00,
2013-06-29 22:26:00,67.2,63.2,29.72,NE,45,0.0,0.0,87,0.00,,,0.12,WUHU216HW,2013-06-30 02:26:00,
2013-06-29 22:32:00,67.2,63.2,29.72,NE,45,0.0,0.0,87,0.00,,,0.12,WUHU216HW,2013-06-30 02:32:00,
2013-06-29 22:38:00,67.1,63.0,29.72,NE,45,0.0,0.0,87,0.00,,,0.12,WUHU216HW,2013-06-30 02:38:00,
2013-06-29 22:44:00,66.9,62.8,29.72,NE,45,0.0,0.0,87,0.00,,,0.12,WUHU216HW,2013-06-30 02:44:00,
2013-06-29 22:49:00,66.9,62.8,29.72,NE,45,0.0,0.0,87,0.00,,,0.12,WUHU216HW,2013-06-30 02:49:00,
2013-06-29 22:55:00,66.7,62.7,29.72,NE,45,0.0,0.0,87,0.00,,,0.12,WUHU216HW,2013-06-30 02:55:00,
2013-06-29 23:01:00,66.7,62.7,29.72,NE,45,0.0,0.0,87,0.00,,,0.12,WUHU216HW,2013-06-30 03:01:00,
2013-06-29 23:07:00,66.5,62.8,29.72,NE,45,0.0,0.0,88,0.00,,,0.12,WUHU216HW,2013-06-30 03:07:00,
2013-06-29 23:12:00,66.5,62.8,29.72,NE,45,0.0,0.0,88,0.00,,,0.12,WUHU216HW,2013-06-30 03:12:00,
2013-06-29 23:18:00,66.3,62.6,29.72,NE,45,0.0,0.0,88,0.00,,,0.12,WUHU216HW,2013-06-30 03:18:00,
2013-06-29 23:23:00,66.3,62.6,29.72,NE,45,0.0,0.0,88,0.00,,,0.12,WUHU216HW,2013-06-30 03:23:00,
2013-06-29 23:29:00,66.2,62.4,29.72,NE,45,0.0,0.0,88,0.00,,,0.12,WUHU216HW,2013-06-30 03:29:00,
2013-06-29 23:34:00,66.0,62.3,29.72,NE,45,0.0,0.0,88,0.00,,,0.12,WUHU216HW,2013-06-30 03:34:00,
2013-06-29 23:40:00,66.0,62.3,29.72,NE,45,0.0,0.0,88,0.00,,,0.12,WUHU216HW,2013-06-30 03:40:00,
2013-06-29 23:45:00,66.0,62.3,29.72,NE,45,0.0,0.0,88,0.00,,,0.12,WUHU216HW,2013-06-30 03:45:00,
2013-06-29 23:51:00,66.0,62.3,29.72,NE,45,0.0,0.0,88,0.00,,,0.12,WUHU216HW,2013-06-30 03:51:00,
2013-06-29 23:56:00,66.0,62.3,29.72,NE,45,0.0,0.0,88,0.00,,,0.12,WUHU216HW,2013-06-30 03:56:00,